Time;durP1;ratioP1;P1;durP2;ratioP2;P2;SDS_P1;SDS_P2;PMS_P1;PMS_P2;Temp;Humidity;BMP_temperature;BMP_pressure;BME280_temperature;BME280_humidity;BME280_pressure;Samples;Min_cycle;Max_cycle;Signal;HPM_P1;HPM_P2
2019/12/23 00:01:34;;;;;;;4.5;1.7;;;;;;;;;;;;;
2019/12/23 00:03:59;;;;;;;5.5;1.8;;;;;;;;;;;;;
2019/12/23 00:06:25;;;;;;;5.3;1.8;;;;;;;;;;;;;
2019/12/23 00:08:50;;;;;;;5.6;1.8;;;;;;;;;;;;;
2019/12/23 00:11:15;;;;;;;5.7;1.7;;;;;;;;;;;;;
2019/12/23 00:13:40;;;;;;;6.5;1.6;;;;;;;;;;;;;
2019/12/23 00:16:05;;;;;;;5.1;1.6;;;;;;;;;;;;;
2019/12/23 00:18:30;;;;;;;5.9;1.7;;;;;;;;;;;;;
2019/12/23 00:20:55;;;;;;;6.3;1.8;;;;;;;;;;;;;
2019/12/23 00:23:20;;;;;;;6.1;2;;;;;;;;;;;;;
2019/12/23 00:25:45;;;;;;;6.1;1.9;;;;;;;;;;;;;
2019/12/23 00:28:11;;;;;;;6.5;1.8;;;;;;;;;;;;;
2019/12/23 00:30:36;;;;;;;6.7;1.7;;;;;;;;;;;;;
2019/12/23 00:33:01;;;;;;;5.3;1.8;;;;;;;;;;;;;
2019/12/23 00:35:26;;;;;;;6.7;2;;;;;;;;;;;;;
2019/12/23 00:37:51;;;;;;;4.8;1.5;;;;;;;;;;;;;
2019/12/23 00:40:16;;;;;;;6.4;1.9;;;;;;;;;;;;;
2019/12/23 00:42:41;;;;;;;5.7;1.9;;;;;;;;;;;;;
2019/12/23 00:45:06;;;;;;;8;2.1;;;;;;;;;;;;;
2019/12/23 00:47:31;;;;;;;6;2;;;;;;;;;;;;;
2019/12/23 00:49:56;;;;;;;5.5;1.6;;;;;;;;;;;;;
2019/12/23 00:52:21;;;;;;;6.2;1.8;;;;;;;;;;;;;
2019/12/23 00:54:47;;;;;;;6.6;2.1;;;;;;;;;;;;;
2019/12/23 00:57:12;;;;;;;6;1.9;;;;;;;;;;;;;
2019/12/23 00:59:37;;;;;;;6.8;1.9;;;;;;;;;;;;;
2019/12/23 01:02:02;;;;;;;7.1;2.1;;;;;;;;;;;;;
2019/12/23 01:04:27;;;;;;;5.5;1.7;;;;;;;;;;;;;
2019/12/23 01:06:52;;;;;;;5.8;1.9;;;;;;;;;;;;;
2019/12/23 01:09:17;;;;;;;5.5;1.7;;;;;;;;;;;;;
2019/12/23 01:11:42;;;;;;;8.4;2.1;;;;;;;;;;;;;
2019/12/23 01:14:07;;;;;;;6.4;1.7;;;;;;;;;;;;;
2019/12/23 01:16:32;;;;;;;5.6;1.6;;;;;;;;;;;;;
2019/12/23 01:18:57;;;;;;;5.9;1.7;;;;;;;;;;;;;
2019/12/23 01:21:22;;;;;;;5.5;1.7;;;;;;;;;;;;;
2019/12/23 01:23:48;;;;;;;5.8;1.8;;;;;;;;;;;;;
2019/12/23 01:26:13;;;;;;;6.2;1.8;;;;;;;;;;;;;
2019/12/23 01:28:38;;;;;;;5.4;1.5;;;;;;;;;;;;;
2019/12/23 01:31:03;;;;;;;6.2;1.6;;;;;;;;;;;;;
2019/12/23 01:33:28;;;;;;;6.5;1.8;;;;;;;;;;;;;
2019/12/23 01:35:53;;;;;;;5.4;1.7;;;;;;;;;;;;;
2019/12/23 01:38:18;;;;;;;6.5;1.9;;;;;;;;;;;;;
2019/12/23 01:40:43;;;;;;;5.2;1.7;;;;;;;;;;;;;
2019/12/23 01:43:08;;;;;;;5.6;2;;;;;;;;;;;;;
2019/12/23 01:45:33;;;;;;;7.7;1.6;;;;;;;;;;;;;
2019/12/23 01:47:58;;;;;;;5.4;1.9;;;;;;;;;;;;;
2019/12/23 01:50:23;;;;;;;6.3;1.9;;;;;;;;;;;;;
2019/12/23 01:52:49;;;;;;;5.9;1.8;;;;;;;;;;;;;
2019/12/23 01:55:14;;;;;;;4.2;1.6;;;;;;;;;;;;;
2019/12/23 01:57:39;;;;;;;7;1.8;;;;;;;;;;;;;
2019/12/23 02:00:04;;;;;;;5.8;1.9;;;;;;;;;;;;;
2019/12/23 02:02:29;;;;;;;6.7;1.9;;;;;;;;;;;;;
2019/12/23 02:04:54;;;;;;;6.2;1.8;;;;;;;;;;;;;
2019/12/23 02:07:19;;;;;;;5.3;1.6;;;;;;;;;;;;;
2019/12/23 02:09:44;;;;;;;5.7;1.8;;;;;;;;;;;;;
2019/12/23 02:12:09;;;;;;;5;1.7;;;;;;;;;;;;;
2019/12/23 02:14:34;;;;;;;4.7;1.6;;;;;;;;;;;;;
2019/12/23 02:16:59;;;;;;;6.3;1.6;;;;;;;;;;;;;
2019/12/23 02:19:24;;;;;;;6;1.7;;;;;;;;;;;;;
2019/12/23 02:21:50;;;;;;;6.1;1.6;;;;;;;;;;;;;
2019/12/23 02:24:15;;;;;;;6.7;1.8;;;;;;;;;;;;;
2019/12/23 02:26:40;;;;;;;5.9;1.4;;;;;;;;;;;;;
2019/12/23 02:29:05;;;;;;;5.6;1.5;;;;;;;;;;;;;
2019/12/23 02:31:30;;;;;;;6.2;1.8;;;;;;;;;;;;;
2019/12/23 02:33:55;;;;;;;6.7;1.8;;;;;;;;;;;;;
2019/12/23 02:36:20;;;;;;;4.8;1.5;;;;;;;;;;;;;
2019/12/23 02:38:45;;;;;;;6.2;1.8;;;;;;;;;;;;;
2019/12/23 02:41:10;;;;;;;6.8;1.7;;;;;;;;;;;;;
2019/12/23 02:43:35;;;;;;;6.9;1.9;;;;;;;;;;;;;
2019/12/23 02:46:00;;;;;;;5.9;1.4;;;;;;;;;;;;;
2019/12/23 02:48:26;;;;;;;5.2;1.3;;;;;;;;;;;;;
2019/12/23 02:50:51;;;;;;;4.6;1.7;;;;;;;;;;;;;
2019/12/23 02:53:16;;;;;;;4.5;1.4;;;;;;;;;;;;;
2019/12/23 02:55:41;;;;;;;5.5;1.6;;;;;;;;;;;;;
2019/12/23 02:58:06;;;;;;;6.5;1.7;;;;;;;;;;;;;
2019/12/23 03:00:31;;;;;;;5;1.4;;;;;;;;;;;;;
2019/12/23 03:02:56;;;;;;;6;1.8;;;;;;;;;;;;;
2019/12/23 03:05:21;;;;;;;4.6;1.7;;;;;;;;;;;;;
2019/12/23 03:07:47;;;;;;;4.8;1.8;;;;;;;;;;;;;
2019/12/23 03:10:12;;;;;;;5.4;1.7;;;;;;;;;;;;;
2019/12/23 03:12:37;;;;;;;6.1;1.6;;;;;;;;;;;;;
2019/12/23 03:15:02;;;;;;;5.3;1.6;;;;;;;;;;;;;
2019/12/23 03:17:27;;;;;;;5.3;1.6;;;;;;;;;;;;;
2019/12/23 03:19:52;;;;;;;4.3;1.3;;;;;;;;;;;;;
2019/12/23 03:22:17;;;;;;;5.1;1.5;;;;;;;;;;;;;
2019/12/23 03:24:42;;;;;;;5.9;1.7;;;;;;;;;;;;;
2019/12/23 03:27:07;;;;;;;4.5;1.3;;;;;;;;;;;;;
2019/12/23 03:29:32;;;;;;;3.6;1.1;;;;;;;;;;;;;
2019/12/23 03:31:57;;;;;;;4.8;1.5;;;;;;;;;;;;;
2019/12/23 03:34:22;;;;;;;5;1.4;;;;;;;;;;;;;
2019/12/23 03:36:48;;;;;;;4.5;1.2;;;;;;;;;;;;;
2019/12/23 03:39:13;;;;;;;3.8;1.2;;;;;;;;;;;;;
2019/12/23 03:41:38;;;;;;;3.7;1.3;;;;;;;;;;;;;
2019/12/23 03:44:03;;;;;;;4.3;1.3;;;;;;;;;;;;;
2019/12/23 03:46:28;;;;;;;4.6;1.3;;;;;;;;;;;;;
2019/12/23 03:48:53;;;;;;;4.2;1.4;;;;;;;;;;;;;
2019/12/23 03:51:18;;;;;;;3.5;1.2;;;;;;;;;;;;;
2019/12/23 03:53:43;;;;;;;4.7;1.3;;;;;;;;;;;;;
2019/12/23 03:56:08;;;;;;;4.6;1.1;;;;;;;;;;;;;
2019/12/23 03:58:34;;;;;;;4.2;1.2;;;;;;;;;;;;;
2019/12/23 04:02:28;;;;;;;5.3;1.4;;;;;;;5.28;96.18848;946.9642;;;;
2019/12/23 04:04:53;;;;;;;3.8;1.3;;;;;;;5.33;96.30273;947.0372;;;;
2019/12/23 04:07:18;;;;;;;3.8;1.2;;;;;;;5.26;96.94629;947.0545;;;;
2019/12/23 04:09:43;;;;;;;3.5;1.1;;;;;;;5.32;97.19727;947.1272;;;;
2019/12/23 04:12:08;;;;;;;4.4;1.2;;;;;;;5.27;96.77734;947.1523;;;;
2019/12/23 04:14:33;;;;;;;4.5;1.2;;;;;;;5.14;97.70215;947.1505;;;;
2019/12/23 04:16:59;;;;;;;3.9;1.2;;;;;;;5.12;98.32031;947.2228;;;;
2019/12/23 04:19:24;;;;;;;4.4;1.3;;;;;;;5.14;98.91797;947.2698;;;;
2019/12/23 04:21:49;;;;;;;4.7;1.3;;;;;;;5.18;98.37109;947.2701;;;;
2019/12/23 04:24:14;;;;;;;4.7;1.5;;;;;;;5.17;98.38965;947.2858;;;;
2019/12/23 04:26:39;;;;;;;4.8;1.5;;;;;;;5.15;99.36328;947.3058;;;;
2019/12/23 04:29:04;;;;;;;4;1.4;;;;;;;5.28;98.82422;947.351;;;;
2019/12/23 04:31:29;;;;;;;4.7;1.5;;;;;;;5.27;98.92578;947.3897;;;;
2019/12/23 04:33:55;;;;;;;4.6;1.5;;;;;;;5.2;98.90918;947.4374;;;;
2019/12/23 04:36:19;;;;;;;5.9;1.7;;;;;;;5.38;98.41699;947.4442;;;;
2019/12/23 04:38:44;;;;;;;4.6;1.6;;;;;;;5.16;99.42188;947.5506;;;;
2019/12/23 04:41:09;;;;;;;6.2;1.8;;;;;;;5.07;100;947.6077;;;;
2019/12/23 04:43:35;;;;;;;4.2;1.4;;;;;;;5.25;99.64746;947.5847;;;;
2019/12/23 04:46:00;;;;;;;5.5;1.7;;;;;;;5.22;98.99316;947.5801;;;;
2019/12/23 04:48:25;;;;;;;4.6;1.5;;;;;;;5.27;99.01758;947.6046;;;;
2019/12/23 04:50:50;;;;;;;4.9;1.5;;;;;;;5.23;98.60938;947.6674;;;;
2019/12/23 04:53:15;;;;;;;3.6;1.3;;;;;;;5.19;98.79395;947.7101;;;;
2019/12/23 04:55:40;;;;;;;3.6;1.2;;;;;;;5.14;98.95215;947.68;;;;
2019/12/23 04:58:05;;;;;;;4.7;1.7;;;;;;;5.14;97.84961;947.7745;;;;
2019/12/23 05:00:31;;;;;;;5.4;1.5;;;;;;;5.07;97.92383;947.7942;;;;
2019/12/23 05:02:56;;;;;;;2.6;1.1;;;;;;;5.25;97.38574;947.9254;;;;
2019/12/23 05:05:21;;;;;;;4.5;1.4;;;;;;;5.05;97.91992;947.9358;;;;
2019/12/23 05:07:46;;;;;;;2.8;1.1;;;;;;;5.27;96.78906;947.9808;;;;
2019/12/23 05:10:11;;;;;;;2.5;1.1;;;;;;;5.25;96.8623;948.0078;;;;
2019/12/23 05:12:37;;;;;;;4.5;1.3;;;;;;;5.26;96.91211;948.0644;;;;
2019/12/23 05:15:02;;;;;;;3.6;1.4;;;;;;;5.15;97.29688;948.0123;;;;
2019/12/23 05:17:27;;;;;;;2.9;1.2;;;;;;;5.16;97.0918;948.0503;;;;
2019/12/23 05:19:52;;;;;;;4.3;1.1;;;;;;;5.15;97.5332;948.1052;;;;
2019/12/23 05:22:17;;;;;;;4.3;1.3;;;;;;;5.15;96.71484;948.1003;;;;
2019/12/23 05:24:42;;;;;;;3.1;1.1;;;;;;;5.29;96.22461;948.1288;;;;
2019/12/23 05:27:08;;;;;;;3.6;1.2;;;;;;;5.23;96.31055;948.1866;;;;
2019/12/23 05:29:33;;;;;;;3;1.2;;;;;;;5.32;95.98047;948.2449;;;;
2019/12/23 05:31:58;;;;;;;3.2;1.2;;;;;;;5.27;97.33496;948.3095;;;;
2019/12/23 05:34:23;;;;;;;2.4;1.2;;;;;;;5.32;96.25293;948.3297;;;;
2019/12/23 05:36:48;;;;;;;2.4;1;;;;;;;5.42;94.99219;948.3748;;;;
2019/12/23 05:39:14;;;;;;;2.5;1;;;;;;;5.41;95.03418;948.4681;;;;
2019/12/23 05:41:39;;;;;;;3.4;1.4;;;;;;;5.23;95.65332;948.449;;;;
2019/12/23 05:44:04;;;;;;;3.6;0.9;;;;;;;5.21;95.78613;948.5117;;;;
2019/12/23 05:46:29;;;;;;;2.5;1;;;;;;;5.3;95.44238;948.4983;;;;
2019/12/23 05:48:55;;;;;;;2.4;1;;;;;;;5.22;95.28809;948.5764;;;;
2019/12/23 05:51:20;;;;;;;2.6;0.8;;;;;;;5.2;95.15918;948.5986;;;;
2019/12/23 05:53:45;;;;;;;2.3;1;;;;;;;5.18;95.29102;948.6807;;;;
2019/12/23 05:56:10;;;;;;;3.2;0.8;;;;;;;5.29;95.30371;948.7676;;;;
2019/12/23 05:58:35;;;;;;;2.4;1.1;;;;;;;5.29;94.50586;948.854;;;;
2019/12/23 06:01:00;;;;;;;1.5;0.8;;;;;;;5.16;94.64844;948.7811;;;;
2019/12/23 06:03:25;;;;;;;2;1.1;;;;;;;5.06;94.99023;948.8331;;;;
2019/12/23 06:05:50;;;;;;;1.9;0.9;;;;;;;5.18;93.9043;948.8769;;;;
2019/12/23 06:08:16;;;;;;;1.8;0.9;;;;;;;5.05;94;948.8495;;;;
2019/12/23 06:10:41;;;;;;;1.6;0.8;;;;;;;5.01;94.23047;948.8835;;;;
2019/12/23 06:13:06;;;;;;;2.4;0.9;;;;;;;5.04;94.85059;948.9302;;;;
2019/12/23 06:15:31;;;;;;;2.3;0.9;;;;;;;5.09;94.49805;948.8928;;;;
2019/12/23 06:17:56;;;;;;;3.5;1.1;;;;;;;5.2;93.36328;948.9216;;;;
2019/12/23 06:20:21;;;;;;;2.7;0.9;;;;;;;5.1;94.15723;948.9525;;;;
2019/12/23 06:22:47;;;;;;;2.9;0.9;;;;;;;5.21;93.24023;948.9348;;;;
2019/12/23 06:25:29;;;;;;;2.5;0.8;;;;;;;5.14;93.31543;948.9752;;;;
2019/12/23 06:27:55;;;;;;;3.7;1.1;;;;;;;5.03;93.54395;949.0778;;;;
2019/12/23 06:30:20;;;;;;;2.5;1;;;;;;;5.05;94.86328;949.0563;;;;
2019/12/23 06:32:45;;;;;;;2.5;1;;;;;;;5.28;92.8125;949.1471;;;;
2019/12/23 06:35:10;;;;;;;2.7;1.1;;;;;;;5.18;92.83398;949.2419;;;;
2019/12/23 06:37:35;;;;;;;3.6;1.3;;;;;;;5.15;93.41895;949.2573;;;;
2019/12/23 06:40:00;;;;;;;3.2;1.1;;;;;;;5.13;93.45117;949.3085;;;;
2019/12/23 06:42:25;;;;;;;3.2;1.1;;;;;;;5.32;92.84473;949.3328;;;;
2019/12/23 06:44:50;;;;;;;2.4;1;;;;;;;5.23;93.12988;949.3276;;;;
2019/12/23 06:47:15;;;;;;;2.8;1.1;;;;;;;5.28;92.29883;949.3409;;;;
2019/12/23 06:49:40;;;;;;;2.5;1;;;;;;;5.2;93.0791;949.4061;;;;
2019/12/23 06:52:05;;;;;;;2.3;0.9;;;;;;;5.29;92.1543;949.4194;;;;
2019/12/23 06:54:31;;;;;;;3.4;1.3;;;;;;;5.32;92.28711;949.5323;;;;
2019/12/23 06:56:56;;;;;;;3.1;1.2;;;;;;;5.31;92.05664;949.5895;;;;
2019/12/23 06:59:21;;;;;;;2.4;0.9;;;;;;;5.37;91.97852;949.5909;;;;
2019/12/23 07:01:46;;;;;;;3.5;1.3;;;;;;;5.34;92.48242;949.5611;;;;
2019/12/23 07:04:11;;;;;;;3.3;1;;;;;;;5.27;91.83203;949.6202;;;;
2019/12/23 07:06:36;;;;;;;3.4;1.1;;;;;;;5.26;91.91992;949.6464;;;;
2019/12/23 07:09:01;;;;;;;3.1;1;;;;;;;5.39;91.11816;949.6351;;;;
2019/12/23 07:11:26;;;;;;;2.7;1.1;;;;;;;5.35;91.46094;949.6275;;;;
2019/12/23 07:13:51;;;;;;;2.9;1.2;;;;;;;5.54;90.73926;949.7022;;;;
2019/12/23 07:16:16;;;;;;;3.5;1;;;;;;;5.4;90.83594;949.6255;;;;
2019/12/23 07:18:41;;;;;;;4.6;1.1;;;;;;;5.45;89.45996;949.6994;;;;
2019/12/23 07:21:06;;;;;;;2.5;1;;;;;;;5.42;90.19141;949.7779;;;;
2019/12/23 07:23:32;;;;;;;4.5;1.2;;;;;;;5.48;91.2627;949.7502;;;;
2019/12/23 07:25:57;;;;;;;3.3;1.2;;;;;;;5.52;89.8252;949.8026;;;;
2019/12/23 07:28:22;;;;;;;3.7;1.3;;;;;;;5.54;90.07031;949.8194;;;;
2019/12/23 07:30:47;;;;;;;2.5;1;;;;;;;5.61;90.1084;949.8741;;;;
2019/12/23 07:33:12;;;;;;;2.5;1;;;;;;;5.55;90.50586;949.9416;;;;
2019/12/23 07:35:37;;;;;;;2;1.1;;;;;;;5.65;90.07031;949.9484;;;;
2019/12/23 07:38:03;;;;;;;4.8;1.4;;;;;;;5.57;93.38867;950.073;;;;
2019/12/23 07:40:28;;;;;;;4.2;1.1;;;;;;;5.51;93.79297;950.0797;;;;
2019/12/23 07:42:53;;;;;;;4.2;1.3;;;;;;;5.36;96.47754;950.0867;;;;
2019/12/23 07:45:18;;;;;;;4.1;1.2;;;;;;;5.31;94.9668;950.1298;;;;
2019/12/23 07:47:43;;;;;;;3.1;1.2;;;;;;;5.37;97.15234;950.1426;;;;
2019/12/23 07:50:08;;;;;;;3;1.1;;;;;;;5.23;95.9375;950.165;;;;
2019/12/23 07:52:34;;;;;;;2.8;1;;;;;;;5.35;96.58887;950.2372;;;;
2019/12/23 07:54:59;;;;;;;3.3;1.3;;;;;;;5.26;97.42383;950.2158;;;;
2019/12/23 07:57:24;;;;;;;3.1;1;;;;;;;5.14;97.86133;950.3356;;;;
2019/12/23 07:59:50;;;;;;;2.5;1;;;;;;;5.24;97.42871;950.3067;;;;
2019/12/23 08:02:15;;;;;;;2.7;1.1;;;;;;;5.11;98.53613;950.356;;;;
2019/12/23 08:04:40;;;;;;;2.1;1;;;;;;;5.24;97.87402;950.4361;;;;
2019/12/23 08:07:05;;;;;;;1.7;1.1;;;;;;;5.17;98.16211;950.4535;;;;
2019/12/23 08:09:30;;;;;;;2.7;1.2;;;;;;;5.25;98.41992;950.4966;;;;
2019/12/23 08:11:55;;;;;;;3.9;1.3;;;;;;;5.31;98.49121;950.5482;;;;
2019/12/23 08:14:20;;;;;;;3.9;1.6;;;;;;;5.21;98.30957;950.5653;;;;
2019/12/23 08:16:45;;;;;;;3.8;1.9;;;;;;;5.25;98.89941;950.5961;;;;
2019/12/23 08:19:22;;;;;;;3.4;1.6;;;;;;;5.33;98.9502;950.5884;;;;
2019/12/23 08:21:47;;;;;;;2.9;1.4;;;;;;;5.33;99.7002;950.6199;;;;
2019/12/23 08:24:12;;;;;;;4.3;1.5;;;;;;;5.26;100;950.6245;;;;
2019/12/23 08:26:37;;;;;;;3.5;1.7;;;;;;;5.21;100;950.697;;;;
2019/12/23 08:29:02;;;;;;;3.5;1.7;;;;;;;5.17;100;950.7296;;;;
2019/12/23 08:31:27;;;;;;;3;1.4;;;;;;;5.26;100;950.7665;;;;
2019/12/23 08:33:52;;;;;;;3.8;1.7;;;;;;;5.17;100;950.8176;;;;
2019/12/23 08:36:17;;;;;;;2.7;1.2;;;;;;;5.14;100;950.8031;;;;
2019/12/23 08:38:42;;;;;;;3.2;1.6;;;;;;;5.29;100;950.8432;;;;
2019/12/23 08:41:07;;;;;;;4.1;1.7;;;;;;;5.27;100;950.9149;;;;
2019/12/23 08:43:32;;;;;;;2.8;1.3;;;;;;;5.23;100;950.9269;;;;
2019/12/23 08:45:57;;;;;;;3.7;1.4;;;;;;;5.19;100;950.9418;;;;
2019/12/23 08:48:22;;;;;;;2.6;1.3;;;;;;;5.2;100;951.0153;;;;
2019/12/23 08:50:47;;;;;;;3.5;1.5;;;;;;;5.3;100;951.0286;;;;
2019/12/23 08:53:12;;;;;;;2.9;1.3;;;;;;;5.37;100;951.0335;;;;
2019/12/23 08:55:38;;;;;;;4;1.9;;;;;;;5.26;100;951.0856;;;;
2019/12/23 08:58:03;;;;;;;4.4;1.5;;;;;;;5.22;100;951.1064;;;;
2019/12/23 09:00:28;;;;;;;4;1.8;;;;;;;5.2;100;951.0695;;;;
2019/12/23 09:02:53;;;;;;;2.7;1.4;;;;;;;5.36;100;951.1545;;;;
2019/12/23 09:05:18;;;;;;;3.7;1.8;;;;;;;5.29;100;951.1647;;;;
2019/12/23 09:07:43;;;;;;;2.5;1.5;;;;;;;5.39;100;951.2498;;;;
2019/12/23 09:10:08;;;;;;;3.5;1.7;;;;;;;5.42;100;951.1835;;;;
2019/12/23 09:12:33;;;;;;;3.9;2.1;;;;;;;5.55;100;951.2941;;;;
2019/12/23 09:14:58;;;;;;;3.1;1.4;;;;;;;5.47;100;951.2867;;;;
2019/12/23 09:17:23;;;;;;;2.9;1.3;;;;;;;5.52;100;951.282;;;;
2019/12/23 09:19:49;;;;;;;2.4;1.1;;;;;;;5.55;100;951.2495;;;;
2019/12/23 09:22:14;;;;;;;2.5;1.2;;;;;;;5.69;99.39746;951.3412;;;;
2019/12/23 09:24:43;;;;;;;3.2;1.3;;;;;;;5.54;100;951.298;;;;
2019/12/23 09:27:04;;;;;;;2.2;1;;;;;;;5.74;99.96777;951.343;;;;
2019/12/23 09:29:30;;;;;;;2;1.2;;;;;;;5.69;99.1582;951.3459;;;;
2019/12/23 09:31:55;;;;;;;2.8;1.1;;;;;;;5.63;100;951.3873;;;;
2019/12/23 09:34:20;;;;;;;2.8;1.2;;;;;;;5.66;99.80078;951.3631;;;;
2019/12/23 09:36:45;;;;;;;1.7;1.1;;;;;;;5.53;100;951.3961;;;;
2019/12/23 09:39:10;;;;;;;2.2;1.1;;;;;;;5.61;100;951.4264;;;;
2019/12/23 09:41:36;;;;;;;2.1;1;;;;;;;5.73;100;951.4551;;;;
2019/12/23 09:44:01;;;;;;;2.3;1.1;;;;;;;5.64;100;951.4707;;;;
2019/12/23 09:46:27;;;;;;;1.9;0.9;;;;;;;5.7;99.25391;951.4916;;;;
2019/12/23 09:48:52;;;;;;;2.1;0.8;;;;;;;5.7;99.77734;951.5006;;;;
2019/12/23 09:51:17;;;;;;;1.6;0.9;;;;;;;5.73;99.26172;951.4965;;;;
2019/12/23 09:53:42;;;;;;;1.8;1;;;;;;;5.81;99.55176;951.5963;;;;
2019/12/23 09:56:07;;;;;;;1.5;0.9;;;;;;;5.63;98.65625;951.5547;;;;
2019/12/23 09:58:32;;;;;;;1.7;1;;;;;;;5.75;99.20703;951.632;;;;
2019/12/23 10:00:57;;;;;;;0.8;0.7;;;;;;;5.72;98.87988;951.6053;;;;
2019/12/23 10:03:22;;;;;;;2;0.8;;;;;;;5.78;98.01855;951.6133;;;;
2019/12/23 10:05:47;;;;;;;1.3;1;;;;;;;5.84;98.37402;951.6689;;;;
2019/12/23 10:08:12;;;;;;;1.5;0.9;;;;;;;5.9;97.73926;951.608;;;;
2019/12/23 10:10:37;;;;;;;2.3;0.8;;;;;;;6;96.62305;951.5783;;;;
2019/12/23 10:13:03;;;;;;;1.2;0.7;;;;;;;6.07;96.68457;951.7848;;;;
2019/12/23 10:15:28;;;;;;;1.6;0.7;;;;;;;6.14;95.14063;951.7458;;;;
2019/12/23 10:17:53;;;;;;;1.2;0.9;;;;;;;6;96.21289;951.7391;;;;
2019/12/23 10:20:18;;;;;;;2.1;1;;;;;;;6.04;95.32324;951.7654;;;;
2019/12/23 10:22:43;;;;;;;1.4;0.7;;;;;;;6.18;95.05762;951.7272;;;;
2019/12/23 10:25:08;;;;;;;1.6;0.9;;;;;;;6.2;94.10449;951.777;;;;
2019/12/23 10:27:33;;;;;;;2.6;0.8;;;;;;;6.23;94.4082;951.7859;;;;
2019/12/23 10:29:58;;;;;;;1.9;0.9;;;;;;;6.26;93.40039;951.8326;;;;
2019/12/23 10:32:23;;;;;;;1.5;0.7;;;;;;;6.33;91.22754;951.839;;;;
2019/12/23 10:34:49;;;;;;;2.5;0.8;;;;;;;6.21;92.06738;951.7723;;;;
2019/12/23 10:37:14;;;;;;;3.8;1.2;;;;;;;6.21;92.02148;951.7392;;;;
2019/12/23 10:39:39;;;;;;;2.9;1;;;;;;;6.3;92.50977;951.7841;;;;
2019/12/23 10:42:04;;;;;;;3.3;1.1;;;;;;;6.38;91.26172;951.8582;;;;
2019/12/23 10:44:29;;;;;;;2.3;0.9;;;;;;;6.58;90.6748;951.9261;;;;
2019/12/23 10:46:55;;;;;;;3.3;1;;;;;;;6.54;89.00293;951.8929;;;;
2019/12/23 10:49:20;;;;;;;2.5;0.9;;;;;;;6.54;89.80273;951.9408;;;;
2019/12/23 10:51:45;;;;;;;1.8;0.8;;;;;;;6.56;89.93164;952.0084;;;;
2019/12/23 10:54:10;;;;;;;3.5;0.9;;;;;;;6.62;90.7207;952.0195;;;;
2019/12/23 10:56:35;;;;;;;4.9;2.2;;;;;;;6.67;90.96777;952.0259;;;;
2019/12/23 10:59:00;;;;;;;4.6;1.7;;;;;;;6.69;90.84961;952.0258;;;;
2019/12/23 11:01:25;;;;;;;2.5;1.2;;;;;;;6.71;90.33789;952.0845;;;;
2019/12/23 11:03:50;;;;;;;2.2;1;;;;;;;6.64;89.01172;952.0901;;;;
2019/12/23 11:06:16;;;;;;;3.2;1;;;;;;;6.72;89.75879;952.117;;;;
2019/12/23 11:08:41;;;;;;;2;0.9;;;;;;;6.77;89.31152;952.1424;;;;
2019/12/23 11:11:06;;;;;;;2.7;0.9;;;;;;;6.78;88.69922;952.1945;;;;
2019/12/23 11:13:31;;;;;;;2.7;0.9;;;;;;;6.68;88.99805;952.22;;;;
2019/12/23 11:15:56;;;;;;;1.7;1;;;;;;;6.78;87.95801;952.2065;;;;
2019/12/23 11:18:22;;;;;;;1.3;0.7;;;;;;;6.8;87.88379;952.2234;;;;
2019/12/23 11:20:47;;;;;;;2.2;0.8;;;;;;;6.81;87.48438;952.1967;;;;
2019/12/23 11:23:12;;;;;;;2.2;0.8;;;;;;;6.81;88.24805;952.2955;;;;
2019/12/23 11:25:37;;;;;;;2.9;1;;;;;;;6.79;87.7793;952.2637;;;;
2019/12/23 11:28:03;;;;;;;2;0.9;;;;;;;6.65;88;952.3042;;;;
2019/12/23 11:30:28;;;;;;;1.8;0.8;;;;;;;6.68;87.02539;952.4133;;;;
2019/12/23 11:32:53;;;;;;;2;0.9;;;;;;;6.77;86.75586;952.421;;;;
2019/12/23 11:35:18;;;;;;;4;1.2;;;;;;;6.81;86.9248;952.3975;;;;
2019/12/23 11:37:43;;;;;;;2.4;1.1;;;;;;;6.97;85.71387;952.4003;;;;
2019/12/23 11:40:08;;;;;;;2.9;1;;;;;;;6.81;86.0127;952.3901;;;;
2019/12/23 11:42:33;;;;;;;3.2;1.1;;;;;;;6.81;86.54883;952.412;;;;
2019/12/23 11:44:59;;;;;;;2.1;0.9;;;;;;;6.76;86.18555;952.3901;;;;
2019/12/23 11:47:24;;;;;;;3.5;0.9;;;;;;;6.9;86.20313;952.5015;;;;
2019/12/23 11:49:49;;;;;;;1.8;1;;;;;;;6.9;86.7168;952.5291;;;;
2019/12/23 11:52:14;;;;;;;2.5;1;;;;;;;6.94;87.68262;952.5912;;;;
2019/12/23 11:54:39;;;;;;;2.5;0.9;;;;;;;6.94;88.49316;952.5443;;;;
2019/12/23 11:57:05;;;;;;;2.3;1;;;;;;;6.9;88.87207;952.4788;;;;
2019/12/23 11:59:30;;;;;;;3.1;1.1;;;;;;;6.88;90.03418;952.5223;;;;
2019/12/23 12:01:55;;;;;;;1.9;0.8;;;;;;;6.85;89.60449;952.5281;;;;
2019/12/23 12:04:20;;;;;;;2.1;0.8;;;;;;;6.77;90.00781;952.5311;;;;
2019/12/23 12:06:46;;;;;;;2.9;1.2;;;;;;;6.86;90.74707;952.5542;;;;
2019/12/23 12:09:11;;;;;;;2.6;1.6;;;;;;;6.82;92.73438;952.5652;;;;
2019/12/23 12:11:36;;;;;;;3.5;1.3;;;;;;;6.86;91.87695;952.6181;;;;
2019/12/23 12:14:02;;;;;;;2.3;0.9;;;;;;;7.01;92.33008;952.6479;;;;
2019/12/23 12:16:27;;;;;;;3.2;1.1;;;;;;;7.07;92.11523;952.7158;;;;
2019/12/23 12:18:52;;;;;;;2.4;1.1;;;;;;;6.9;93.01563;952.7161;;;;
2019/12/23 12:21:17;;;;;;;2.4;1.1;;;;;;;6.88;92.97559;952.7131;;;;
2019/12/23 12:23:42;;;;;;;3;1.5;;;;;;;6.77;93.62402;952.6817;;;;
2019/12/23 12:26:07;;;;;;;2.6;0.9;;;;;;;6.82;92.66797;952.7275;;;;
2019/12/23 12:28:33;;;;;;;1.4;0.8;;;;;;;6.9;93.62988;952.81;;;;
2019/12/23 12:30:58;;;;;;;2.2;0.9;;;;;;;6.59;92.49414;952.8437;;;;
2019/12/23 12:33:23;;;;;;;1.2;0.7;;;;;;;6.57;92.36035;952.8552;;;;
2019/12/23 12:35:49;;;;;;;0.8;0.5;;;;;;;6.34;92.74512;952.967;;;;
2019/12/23 12:38:14;;;;;;;1.6;0.6;;;;;;;6.37;92.61621;952.9551;;;;
2019/12/23 12:40:39;;;;;;;2.2;0.8;;;;;;;6.4;94.05664;953.0792;;;;
2019/12/23 12:43:04;;;;;;;1.4;0.5;;;;;;;6.46;92.58789;953.0531;;;;
2019/12/23 12:45:29;;;;;;;2;0.7;;;;;;;6.46;93.12598;953.1498;;;;
2019/12/23 12:47:55;;;;;;;1.6;0.6;;;;;;;6.38;92.36523;953.1381;;;;
2019/12/23 12:50:20;;;;;;;1.2;0.7;;;;;;;6.46;92.97754;953.1142;;;;
2019/12/23 12:52:45;;;;;;;0.8;0.4;;;;;;;6.33;92.10547;953.2444;;;;
2019/12/23 12:55:10;;;;;;;1.4;0.6;;;;;;;6.25;92.6123;953.231;;;;
2019/12/23 12:57:36;;;;;;;0.9;0.5;;;;;;;6.22;93.4248;953.26;;;;
2019/12/23 13:00:01;;;;;;;0.9;0.5;;;;;;;6.28;92.86816;953.2097;;;;
2019/12/23 13:02:27;;;;;;;0.8;0.5;;;;;;;6.16;92.92285;953.2877;;;;
2019/12/23 13:04:52;;;;;;;0.8;0.5;;;;;;;6.22;92.71777;953.3021;;;;
2019/12/23 13:07:17;;;;;;;1.6;0.5;;;;;;;6.17;93.93848;953.3925;;;;
2019/12/23 13:09:42;;;;;;;0.9;0.5;;;;;;;6.2;93.43164;953.5016;;;;
2019/12/23 13:12:08;;;;;;;1.1;0.6;;;;;;;6.25;93.64941;953.5626;;;;
2019/12/23 13:14:33;;;;;;;1.1;0.6;;;;;;;6.26;92.77344;953.4797;;;;
2019/12/23 13:16:58;;;;;;;1.1;0.6;;;;;;;6.13;93.47559;953.5247;;;;
2019/12/23 13:19:23;;;;;;;1.7;0.8;;;;;;;6.35;92.24609;953.605;;;;
2019/12/23 13:21:48;;;;;;;1.6;0.6;;;;;;;6.27;93.02637;953.6303;;;;
2019/12/23 13:24:13;;;;;;;1;0.7;;;;;;;6.38;92.60547;953.6736;;;;
2019/12/23 13:26:39;;;;;;;1;0.7;;;;;;;6.28;93.10742;953.7818;;;;
2019/12/23 13:29:04;;;;;;;1.9;0.8;;;;;;;6.27;93.52734;953.7743;;;;
2019/12/23 13:31:29;;;;;;;1.5;0.9;;;;;;;6.57;93.22949;953.837;;;;
2019/12/23 13:33:54;;;;;;;2.1;0.8;;;;;;;6.27;93.40234;953.8488;;;;
2019/12/23 13:36:19;;;;;;;1.8;0.7;;;;;;;6.3;92.7832;953.8448;;;;
2019/12/23 13:38:44;;;;;;;1.3;0.7;;;;;;;6.22;93.99414;953.9072;;;;
2019/12/23 13:41:09;;;;;;;1.5;0.8;;;;;;;6.18;93.6582;953.9961;;;;
2019/12/23 13:43:35;;;;;;;2.5;1;;;;;;;6.25;94.44824;954.0176;;;;
2019/12/23 13:46:00;;;;;;;1.8;0.9;;;;;;;6.39;93.98828;954.1512;;;;
2019/12/23 13:48:25;;;;;;;2.4;0.7;;;;;;;6.39;93.69141;954.1853;;;;
2019/12/23 13:50:50;;;;;;;1.8;0.9;;;;;;;6.48;93.59766;954.1464;;;;
2019/12/23 13:53:15;;;;;;;2.3;0.9;;;;;;;6.45;93.60059;954.2361;;;;
2019/12/23 13:55:40;;;;;;;1.6;0.8;;;;;;;6.35;94.00098;954.2758;;;;
2019/12/23 13:58:05;;;;;;;3.3;2.2;;;;;;;6.36;94.27637;954.3503;;;;
2019/12/23 14:00:31;;;;;;;2.7;1.4;;;;;;;6.46;93.52344;954.382;;;;
2019/12/23 14:02:56;;;;;;;2.7;1.2;;;;;;;6.46;93.30664;954.3513;;;;
2019/12/23 14:05:22;;;;;;;2.1;0.9;;;;;;;6.55;93.23438;954.4171;;;;
2019/12/23 14:07:47;;;;;;;2.1;1;;;;;;;6.52;93.44531;954.335;;;;
2019/12/23 14:10:12;;;;;;;3;1.1;;;;;;;6.65;92.49414;954.4048;;;;
2019/12/23 14:12:37;;;;;;;2.2;0.9;;;;;;;6.71;93.12109;954.4113;;;;
2019/12/23 14:15:02;;;;;;;1.7;1.1;;;;;;;6.74;92.51367;954.4526;;;;
2019/12/23 14:17:28;;;;;;;6.6;4;;;;;;;6.82;91;954.4745;;;;
2019/12/23 14:19:53;;;;;;;5.3;3.2;;;;;;;6.72;91.49219;954.46;;;;
2019/12/23 14:22:18;;;;;;;3.1;1.4;;;;;;;6.61;92.57324;954.4943;;;;
2019/12/23 14:24:43;;;;;;;2.1;1;;;;;;;6.71;92.07227;954.4833;;;;
2019/12/23 14:27:09;;;;;;;1.7;1;;;;;;;6.59;91.53223;954.5652;;;;
2019/12/23 14:29:34;;;;;;;1.3;0.9;;;;;;;6.43;91.27148;954.5503;;;;
2019/12/23 14:31:59;;;;;;;2.4;1;;;;;;;6.49;91.88867;954.5742;;;;
2019/12/23 14:34:24;;;;;;;1.6;1;;;;;;;6.61;91.27344;954.7161;;;;
2019/12/23 14:36:49;;;;;;;1.3;0.8;;;;;;;6.42;91.63477;954.7047;;;;
2019/12/23 14:39:14;;;;;;;1.8;0.9;;;;;;;6.4;93.09863;954.7972;;;;
2019/12/23 14:41:39;;;;;;;1.5;0.9;;;;;;;6.5;92.26758;954.7921;;;;
2019/12/23 14:44:04;;;;;;;1.4;1;;;;;;;6.48;92.99316;954.7858;;;;
2019/12/23 14:46:30;;;;;;;1.9;0.9;;;;;;;6.56;92.15332;954.8979;;;;
2019/12/23 14:48:55;;;;;;;1.8;0.8;;;;;;;6.34;92.96191;954.9428;;;;
2019/12/23 14:51:20;;;;;;;1.3;0.8;;;;;;;6.32;93.12695;954.9991;;;;
2019/12/23 14:53:46;;;;;;;1.4;0.8;;;;;;;6.37;93.21875;955.0188;;;;
2019/12/23 14:56:11;;;;;;;1.3;0.9;;;;;;;6.13;93.65723;955.1206;;;;
2019/12/23 14:58:36;;;;;;;1.3;0.9;;;;;;;6.23;92.96094;955.2636;;;;
2019/12/23 15:01:02;;;;;;;1.6;0.8;;;;;;;6.27;92.96875;955.2338;;;;
2019/12/23 15:03:27;;;;;;;1;0.6;;;;;;;6.12;93.57617;955.321;;;;
2019/12/23 15:05:53;;;;;;;1.9;1;;;;;;;6.15;93.77539;955.3437;;;;
2019/12/23 15:08:18;;;;;;;1.9;0.8;;;;;;;6.04;95.34668;955.3245;;;;
2019/12/23 15:10:43;;;;;;;1.8;0.9;;;;;;;6.06;95.12012;955.3831;;;;
2019/12/23 15:13:09;;;;;;;1.6;0.7;;;;;;;6.14;95.00391;955.4811;;;;
2019/12/23 15:15:34;;;;;;;1.7;1.1;;;;;;;6.05;95.66699;955.5439;;;;
2019/12/23 15:17:59;;;;;;;1.5;1;;;;;;;6.1;95.65625;955.5803;;;;
2019/12/23 15:20:24;;;;;;;2.1;1.1;;;;;;;6.11;95.96387;955.5844;;;;
2019/12/23 15:22:49;;;;;;;1.5;0.9;;;;;;;6.1;96.49902;955.5432;;;;
2019/12/23 15:25:14;;;;;;;3.5;1;;;;;;;6.16;96.69336;955.6472;;;;
2019/12/23 15:27:40;;;;;;;1;0.8;;;;;;;6.05;97.23926;955.6644;;;;
2019/12/23 15:30:05;;;;;;;1.8;0.9;;;;;;;5.96;97.87891;955.7119;;;;
2019/12/23 15:32:30;;;;;;;2.5;1.1;;;;;;;6.12;97.03906;955.7748;;;;
2019/12/23 15:34:56;;;;;;;1.8;1;;;;;;;6.09;97.19043;955.8685;;;;
2019/12/23 15:37:21;;;;;;;2.2;1.3;;;;;;;6.06;97.15918;955.8748;;;;
2019/12/23 15:39:46;;;;;;;1.6;1;;;;;;;6.01;98.2334;955.8987;;;;
2019/12/23 15:42:11;;;;;;;1.7;1;;;;;;;6.13;98.21191;956.0119;;;;
2019/12/23 15:44:38;;;;;;;1.6;1;;;;;;;6.09;99.25195;956.0432;;;;
2019/12/23 15:47:02;;;;;;;3;1;;;;;;;6.14;99.48047;955.9924;;;;